Eagleville, Missouri
Current Conditions -  °F | °C
As of 6:53 PM on Sunday 21 Dec 2014 (Local Time) from KLWD Reporting Station
Overcast Overcast  
Wind Chill: 35°   Ceiling: 800
Heat Index: 41°   Visibility: 10mi
Dew Point: 40°   Wind: 10mph
Humidity: 96%   Direction: 160°SSE
Pressure: 29.79"   Gusts: 20mph
Location:  40.47°N, 93.99°W
Report Text: KLWD 220053Z AUTO 16009G17KT 10SM BKN008 OVC038 05/04 A2979 RMK AO2 CIG 006V011 SLP096 T00500044
Loading
Personal Weather Stations






























Interactive Weather Map New forecast layout! Learn more

10-Day Weather Forecast

Advertisements
Track Severe Weather on mobile